Joensuu, Finland

1:12 AM EET on December 11, 2016 (GMT +0200)
Woods | | Change Station

Elev 295 ft 62.69 °N, 29.82 °E | Updated 41 seconds ago

Light Snow
Light Snow
20.3 °F
Feels Like 12 °F
N
6.0
Wind Variable Wind from South
Gusts 14.0 mph

Today
High -- | Low -- °F
--% Chance of Precip.
Yesterday
High -- | Low -- °F
Precip. -- in
Pressure 29.59 in
Visibility 6.2 miles
Clouds Overcast 1000 ft
Windchill 12 °F
Dew Point 18 °F
Humidity 90%
Rainfall 0.00 in
Snow Depth Not available.
9:22 AM 2:26 PM
Waxing Gibbous, 87% visible
METAR EFJO 102250Z AUTO 28010KT 9999 -SN OVC010 M08/M09 Q1002
Pressure 29.59 in
Visibility 6.2 miles
Clouds Overcast 1000 ft
Windchill 12 °F
Dew Point 18 °F
Humidity 90%
Rainfall 0.00 in
Snow Depth Not available.
9:22 AM 2:26 PM
Waxing Gibbous, 87% visible
METAR EFJO 102250Z AUTO 28010KT 9999 -SN OVC010 M08/M09 Q1002

10-Day Weather Forecast

×

Almanac

Astronomy

Dec. 11, 2016 Rise Set
Actual Time
Civil Twilight
Nautical Twilight
Astronomical Twilight
Moon
Length of Visible Light
Length of Day
Tomorrow will be .
, % of the Moon is Illuminated

Today's Extremes

Country Highs Country Lows

Community

WunderPhotos

Upload Photos

1,956,670 photos uploaded!

WunderBlog® & News

Nearby

Air Quality

  Air Quality AQ Index Pollutant
Not available.

Snow Depth

Station Depth Elevation

Earthquake Activity

City Distance Mag. Time & Date
Minimum magnitude displayed is 2.5.

Coastal Water Temperatures

Place Temperature

Stations

Nearby Weather Stations

Station Location Temp. Windchill Dew Point Humidity Wind Precip. Elev Updated Type